sensor_id;sensor_type;location;lat;lon;timestamp;pressure;altitude;pressure_sealevel;temperature;humidity
27334;BME280;14817;57.104;-2.094;2023-04-27T00:01:14;100974.41;;;5.50;100.00
27334;BME280;14817;57.104;-2.094;2023-04-27T00:03:42;100970.44;;;5.56;100.00
27334;BME280;14817;57.104;-2.094;2023-04-27T00:06:09;100966.94;;;5.56;100.00
27334;BME280;14817;57.104;-2.094;2023-04-27T00:08:36;100967.88;;;5.55;100.00
27334;BME280;14817;57.104;-2.094;2023-04-27T00:11:03;100965.22;;;5.55;100.00
27334;BME280;14817;57.104;-2.094;2023-04-27T00:13:29;100965.44;;;5.51;100.00
27334;BME280;14817;57.104;-2.094;2023-04-27T00:15:56;100969.38;;;5.46;100.00
27334;BME280;14817;57.104;-2.094;2023-04-27T00:18:26;100965.97;;;5.44;100.00
27334;BME280;14817;57.104;-2.094;2023-04-27T00:20:53;100966.72;;;5.46;100.00
27334;BME280;14817;57.104;-2.094;2023-04-27T00:23:19;100966.13;;;5.42;100.00
27334;BME280;14817;57.104;-2.094;2023-04-27T00:25:47;100961.13;;;5.38;100.00
27334;BME280;14817;57.104;-2.094;2023-04-27T00:28:13;100965.78;;;5.34;100.00
27334;BME280;14817;57.104;-2.094;2023-04-27T00:30:40;100964.09;;;5.33;100.00
27334;BME280;14817;57.104;-2.094;2023-04-27T00:33:07;100964.81;;;5.35;100.00
27334;BME280;14817;57.104;-2.094;2023-04-27T00:35:34;100961.44;;;5.33;100.00
27334;BME280;14817;57.104;-2.094;2023-04-27T00:38:01;100964.63;;;5.38;100.00
27334;BME280;14817;57.104;-2.094;2023-04-27T00:40:28;100964.41;;;5.41;100.00
27334;BME280;14817;57.104;-2.094;2023-04-27T00:42:54;100959.31;;;5.38;100.00
27334;BME280;14817;57.104;-2.094;2023-04-27T00:45:21;100960.81;;;5.42;100.00
27334;BME280;14817;57.104;-2.094;2023-04-27T00:47:48;100951.22;;;5.40;100.00
27334;BME280;14817;57.104;-2.094;2023-04-27T00:50:19;100951.84;;;5.43;100.00
27334;BME280;14817;57.104;-2.094;2023-04-27T00:52:53;100945.91;;;5.40;100.00
27334;BME280;14817;57.104;-2.094;2023-04-27T00:55:20;100946.13;;;5.37;100.00
27334;BME280;14817;57.104;-2.094;2023-04-27T00:57:46;100939.97;;;5.36;100.00
27334;BME280;14817;57.104;-2.094;2023-04-27T01:00:13;100944.44;;;5.36;100.00
27334;BME280;14817;57.104;-2.094;2023-04-27T01:02:41;100941.91;;;5.34;100.00
27334;BME280;14817;57.104;-2.094;2023-04-27T01:05:08;100943.06;;;5.30;100.00
27334;BME280;14817;57.104;-2.094;2023-04-27T01:07:37;100942.44;;;5.26;100.00
27334;BME280;14817;57.104;-2.094;2023-04-27T01:10:05;100942.75;;;5.22;100.00
27334;BME280;14817;57.104;-2.094;2023-04-27T01:12:34;100937.13;;;5.14;100.00
27334;BME280;14817;57.104;-2.094;2023-04-27T01:15:04;100934.16;;;5.05;100.00
27334;BME280;14817;57.104;-2.094;2023-04-27T01:17:31;100938.94;;;5.00;100.00
27334;BME280;14817;57.104;-2.094;2023-04-27T01:19:58;100936.38;;;4.99;100.00
27334;BME280;14817;57.104;-2.094;2023-04-27T01:22:25;100938.72;;;4.90;100.00
27334;BME280;14817;57.104;-2.094;2023-04-27T01:24:52;100928.09;;;4.90;100.00
27334;BME280;14817;57.104;-2.094;2023-04-27T01:27:20;100936.81;;;4.93;100.00
27334;BME280;14817;57.104;-2.094;2023-04-27T01:29:47;100923.44;;;4.94;100.00
27334;BME280;14817;57.104;-2.094;2023-04-27T01:32:13;100918.13;;;4.94;100.00
27334;BME280;14817;57.104;-2.094;2023-04-27T01:34:40;100916.00;;;4.99;100.00
27334;BME280;14817;57.104;-2.094;2023-04-27T01:37:07;100917.59;;;5.02;100.00
27334;BME280;14817;57.104;-2.094;2023-04-27T01:39:34;100914.94;;;5.02;100.00
27334;BME280;14817;57.104;-2.094;2023-04-27T01:42:01;100918.13;;;5.07;100.00
27334;BME280;14817;57.104;-2.094;2023-04-27T01:44:29;100920.03;;;5.05;100.00
27334;BME280;14817;57.104;-2.094;2023-04-27T01:46:56;100925.00;;;5.09;100.00
27334;BME280;14817;57.104;-2.094;2023-04-27T01:49:22;100917.06;;;5.09;100.00
27334;BME280;14817;57.104;-2.094;2023-04-27T01:51:49;100917.94;;;5.10;100.00
27334;BME280;14817;57.104;-2.094;2023-04-27T01:54:16;100918.03;;;5.08;100.00
27334;BME280;14817;57.104;-2.094;2023-04-27T01:56:44;100923.44;;;5.07;100.00
27334;BME280;14817;57.104;-2.094;2023-04-27T01:59:11;100915.13;;;5.11;100.00
27334;BME280;14817;57.104;-2.094;2023-04-27T02:01:39;100909.84;;;5.11;100.00
27334;BME280;14817;57.104;-2.094;2023-04-27T02:04:06;100909.84;;;5.11;100.00
27334;BME280;14817;57.104;-2.094;2023-04-27T02:06:34;100897.63;;;5.09;100.00
27334;BME280;14817;57.104;-2.094;2023-04-27T02:09:01;100890.00;;;5.04;100.00
27334;BME280;14817;57.104;-2.094;2023-04-27T02:11:28;100895.72;;;4.98;100.00
27334;BME280;14817;57.104;-2.094;2023-04-27T02:13:54;100894.13;;;4.96;100.00
27334;BME280;14817;57.104;-2.094;2023-04-27T02:16:29;100888.41;;;4.89;100.00
27334;BME280;14817;57.104;-2.094;2023-04-27T02:18:56;100890.09;;;4.90;100.00
27334;BME280;14817;57.104;-2.094;2023-04-27T02:21:24;100887.53;;;4.88;100.00
27334;BME280;14817;57.104;-2.094;2023-04-27T02:23:51;100884.88;;;4.88;100.00
27334;BME280;14817;57.104;-2.094;2023-04-27T02:26:18;100890.31;;;4.87;100.00
27334;BME280;14817;57.104;-2.094;2023-04-27T02:28:45;100883.13;;;4.89;100.00
27334;BME280;14817;57.104;-2.094;2023-04-27T02:31:16;100891.91;;;4.89;100.00
27334;BME280;14817;57.104;-2.094;2023-04-27T02:33:44;100888.19;;;4.92;100.00
27334;BME280;14817;57.104;-2.094;2023-04-27T02:36:11;100885.53;;;4.92;100.00
27334;BME280;14817;57.104;-2.094;2023-04-27T02:38:38;100883.63;;;4.94;100.00
27334;BME280;14817;57.104;-2.094;2023-04-27T02:41:05;100878.22;;;4.96;100.00
27334;BME280;14817;57.104;-2.094;2023-04-27T02:43:32;100882.47;;;4.98;100.00
27334;BME280;14817;57.104;-2.094;2023-04-27T02:46:03;100882.03;;;5.04;100.00
27334;BME280;14817;57.104;-2.094;2023-04-27T02:48:30;100877.66;;;5.03;100.00
27334;BME280;14817;57.104;-2.094;2023-04-27T02:50:57;100870.56;;;5.04;100.00
27334;BME280;14817;57.104;-2.094;2023-04-27T02:53:24;100874.06;;;5.04;100.00
27334;BME280;14817;57.104;-2.094;2023-04-27T02:55:51;100871.84;;;4.98;100.00
27334;BME280;14817;57.104;-2.094;2023-04-27T02:58:17;100857.59;;;4.99;100.00
27334;BME280;14817;57.104;-2.094;2023-04-27T03:00:45;100866.75;;;4.95;100.00
27334;BME280;14817;57.104;-2.094;2023-04-27T03:03:14;100857.31;;;4.91;100.00
27334;BME280;14817;57.104;-2.094;2023-04-27T03:05:41;100861.00;;;4.88;100.00
27334;BME280;14817;57.104;-2.094;2023-04-27T03:08:08;100862.31;;;4.83;100.00
27334;BME280;14817;57.104;-2.094;2023-04-27T03:10:34;100871.00;;;4.85;100.00
27334;BME280;14817;57.104;-2.094;2023-04-27T03:13:01;100863.38;;;4.80;100.00
27334;BME280;14817;57.104;-2.094;2023-04-27T03:15:28;100858.06;;;4.80;100.00
27334;BME280;14817;57.104;-2.094;2023-04-27T03:17:55;100857.19;;;4.80;100.00
27334;BME280;14817;57.104;-2.094;2023-04-27T03:20:22;100866.88;;;4.81;100.00
27334;BME280;14817;57.104;-2.094;2023-04-27T03:22:52;100865.91;;;4.82;100.00
27334;BME280;14817;57.104;-2.094;2023-04-27T03:25:19;100872.91;;;4.83;100.00
27334;BME280;14817;57.104;-2.094;2023-04-27T03:27:45;100867.38;;;4.86;100.00
27334;BME280;14817;57.104;-2.094;2023-04-27T03:30:12;100869.09;;;4.87;100.00
27334;BME280;14817;57.104;-2.094;2023-04-27T03:32:39;100867.19;;;4.89;100.00
27334;BME280;14817;57.104;-2.094;2023-04-27T03:35:06;100863.66;;;4.88;100.00
27334;BME280;14817;57.104;-2.094;2023-04-27T03:37:34;100857.09;;;4.94;100.00
27334;BME280;14817;57.104;-2.094;2023-04-27T03:40:02;100849.22;;;4.93;100.00
27334;BME280;14817;57.104;-2.094;2023-04-27T03:42:33;100849.34;;;4.91;100.00
27334;BME280;14817;57.104;-2.094;2023-04-27T03:45:00;100863.47;;;4.91;100.00
27334;BME280;14817;57.104;-2.094;2023-04-27T03:47:27;100858.91;;;4.94;100.00
27334;BME280;14817;57.104;-2.094;2023-04-27T03:49:54;100857.50;;;5.01;100.00
27334;BME280;14817;57.104;-2.094;2023-04-27T03:52:20;100856.66;;;5.00;100.00
27334;BME280;14817;57.104;-2.094;2023-04-27T03:54:47;100851.13;;;5.03;100.00
27334;BME280;14817;57.104;-2.094;2023-04-27T03:57:14;100855.25;;;5.07;100.00
27334;BME280;14817;57.104;-2.094;2023-04-27T03:59:41;100850.06;;;5.06;100.00
27334;BME280;14817;57.104;-2.094;2023-04-27T04:02:08;100842.13;;;5.06;100.00
27334;BME280;14817;57.104;-2.094;2023-04-27T04:04:35;100844.63;;;5.07;100.00
27334;BME280;14817;57.104;-2.094;2023-04-27T04:07:02;100853.25;;;5.11;100.00
27334;BME280;14817;57.104;-2.094;2023-04-27T04:09:29;100851.44;;;5.11;100.00
27334;BME280;14817;57.104;-2.094;2023-04-27T04:11:56;100852.28;;;5.12;100.00
27334;BME280;14817;57.104;-2.094;2023-04-27T04:14:23;100866.28;;;5.14;100.00
27334;BME280;14817;57.104;-2.094;2023-04-27T04:16:50;100859.19;;;5.15;100.00
27334;BME280;14817;57.104;-2.094;2023-04-27T04:19:19;100856.75;;;5.11;100.00
27334;BME280;14817;57.104;-2.094;2023-04-27T04:21:47;100849.50;;;5.14;100.00
27334;BME280;14817;57.104;-2.094;2023-04-27T04:24:14;100847.41;;;5.19;100.00
27334;BME280;14817;57.104;-2.094;2023-04-27T04:26:42;100849.09;;;5.20;100.00
27334;BME280;14817;57.104;-2.094;2023-04-27T04:29:08;100847.41;;;5.19;100.00
27334;BME280;14817;57.104;-2.094;2023-04-27T04:31:36;100847.16;;;5.22;100.00
27334;BME280;14817;57.104;-2.094;2023-04-27T04:34:03;100850.66;;;5.22;100.00
27334;BME280;14817;57.104;-2.094;2023-04-27T04:36:30;100850.16;;;5.17;100.00
27334;BME280;14817;57.104;-2.094;2023-04-27T04:38:57;100846.44;;;5.20;100.00
27334;BME280;14817;57.104;-2.094;2023-04-27T04:41:25;100854.38;;;5.20;100.00
27334;BME280;14817;57.104;-2.094;2023-04-27T04:43:52;100853.31;;;5.22;100.00
27334;BME280;14817;57.104;-2.094;2023-04-27T04:46:18;100845.47;;;5.21;100.00
27334;BME280;14817;57.104;-2.094;2023-04-27T04:48:45;100853.13;;;5.25;100.00
27334;BME280;14817;57.104;-2.094;2023-04-27T04:51:12;100850.31;;;5.27;100.00
27334;BME280;14817;57.104;-2.094;2023-04-27T04:53:39;100846.97;;;5.25;100.00
27334;BME280;14817;57.104;-2.094;2023-04-27T04:56:10;100841.84;;;5.22;100.00
27334;BME280;14817;57.104;-2.094;2023-04-27T04:58:37;100847.66;;;5.27;100.00
27334;BME280;14817;57.104;-2.094;2023-04-27T05:01:05;100844.91;;;5.28;100.00
27334;BME280;14817;57.104;-2.094;2023-04-27T05:03:32;100841.66;;;5.25;100.00
27334;BME280;14817;57.104;-2.094;2023-04-27T05:05:59;100839.94;;;5.24;100.00
27334;BME280;14817;57.104;-2.094;2023-04-27T05:08:26;100845.00;;;5.27;100.00
27334;BME280;14817;57.104;-2.094;2023-04-27T05:10:54;100844.19;;;5.26;100.00
27334;BME280;14817;57.104;-2.094;2023-04-27T05:13:21;100836.09;;;5.28;100.00
27334;BME280;14817;57.104;-2.094;2023-04-27T05:15:50;100835.03;;;5.30;100.00
27334;BME280;14817;57.104;-2.094;2023-04-27T05:18:18;100833.00;;;5.34;100.00
27334;BME280;14817;57.104;-2.094;2023-04-27T05:20:44;100839.16;;;5.35;100.00
27334;BME280;14817;57.104;-2.094;2023-04-27T05:23:11;100841.19;;;5.31;100.00
27334;BME280;14817;57.104;-2.094;2023-04-27T05:25:38;100843.72;;;5.32;100.00
27334;BME280;14817;57.104;-2.094;2023-04-27T05:28:09;100835.66;;;5.34;100.00
27334;BME280;14817;57.104;-2.094;2023-04-27T05:30:36;100833.75;;;5.36;100.00
27334;BME280;14817;57.104;-2.094;2023-04-27T05:33:03;100840.53;;;5.40;100.00
27334;BME280;14817;57.104;-2.094;2023-04-27T05:35:31;100835.84;;;5.44;100.00
27334;BME280;14817;57.104;-2.094;2023-04-27T05:37:58;100826.28;;;5.41;100.00
27334;BME280;14817;57.104;-2.094;2023-04-27T05:40:27;100822.69;;;5.42;100.00
27334;BME280;14817;57.104;-2.094;2023-04-27T05:42:54;100829.91;;;5.40;100.00
27334;BME280;14817;57.104;-2.094;2023-04-27T05:45:21;100824.91;;;5.48;100.00
27334;BME280;14817;57.104;-2.094;2023-04-27T05:47:48;100829.69;;;5.43;100.00
27334;BME280;14817;57.104;-2.094;2023-04-27T05:50:15;100822.44;;;5.45;100.00
27334;BME280;14817;57.104;-2.094;2023-04-27T05:52:41;100820.78;;;5.44;100.00
27334;BME280;14817;57.104;-2.094;2023-04-27T05:55:08;100817.13;;;5.45;100.00
27334;BME280;14817;57.104;-2.094;2023-04-27T05:57:35;100818.59;;;5.49;100.00
27334;BME280;14817;57.104;-2.094;2023-04-27T06:00:03;100805.81;;;5.55;100.00
27334;BME280;14817;57.104;-2.094;2023-04-27T06:02:37;100801.78;;;5.62;100.00
27334;BME280;14817;57.104;-2.094;2023-04-27T06:05:05;100799.84;;;5.64;100.00
27334;BME280;14817;57.104;-2.094;2023-04-27T06:07:32;100807.38;;;5.70;100.00
27334;BME280;14817;57.104;-2.094;2023-04-27T06:09:59;100798.31;;;5.72;100.00
27334;BME280;14817;57.104;-2.094;2023-04-27T06:12:26;100803.63;;;5.72;100.00
27334;BME280;14817;57.104;-2.094;2023-04-27T06:14:53;100802.31;;;5.78;100.00
27334;BME280;14817;57.104;-2.094;2023-04-27T06:17:20;100797.00;;;5.78;100.00
27334;BME280;14817;57.104;-2.094;2023-04-27T06:19:47;100807.41;;;5.81;100.00
27334;BME280;14817;57.104;-2.094;2023-04-27T06:22:14;100802.94;;;5.82;100.00
27334;BME280;14817;57.104;-2.094;2023-04-27T06:24:40;100807.06;;;5.86;100.00
27334;BME280;14817;57.104;-2.094;2023-04-27T06:27:07;100807.41;;;5.81;100.00
27334;BME280;14817;57.104;-2.094;2023-04-27T06:29:34;100806.97;;;5.87;100.00
27334;BME280;14817;57.104;-2.094;2023-04-27T06:32:01;100804.06;;;5.90;100.00
27334;BME280;14817;57.104;-2.094;2023-04-27T06:34:32;100804.78;;;5.92;100.00
27334;BME280;14817;57.104;-2.094;2023-04-27T06:36:59;100797.47;;;5.96;100.00
27334;BME280;14817;57.104;-2.094;2023-04-27T06:39:26;100797.66;;;5.93;100.00
27334;BME280;14817;57.104;-2.094;2023-04-27T06:41:53;100801.19;;;5.93;100.00
27334;BME280;14817;57.104;-2.094;2023-04-27T06:44:20;100802.97;;;5.93;100.00
27334;BME280;14817;57.104;-2.094;2023-04-27T06:46:46;100806.72;;;5.90;100.00
27334;BME280;14817;57.104;-2.094;2023-04-27T06:49:13;100796.31;;;5.87;100.00
27334;BME280;14817;57.104;-2.094;2023-04-27T06:51:40;100796.31;;;5.87;100.00
27334;BME280;14817;57.104;-2.094;2023-04-27T06:54:07;100803.22;;;5.90;100.00
27334;BME280;14817;57.104;-2.094;2023-04-27T06:56:35;100795.34;;;5.88;100.00
27334;BME280;14817;57.104;-2.094;2023-04-27T06:59:01;100796.63;;;5.96;100.00
27334;BME280;14817;57.104;-2.094;2023-04-27T07:01:28;100799.56;;;5.91;100.00
27334;BME280;14817;57.104;-2.094;2023-04-27T07:03:55;100805.34;;;5.98;100.00
27334;BME280;14817;57.104;-2.094;2023-04-27T07:06:23;100794.16;;;5.92;100.00
27334;BME280;14817;57.104;-2.094;2023-04-27T07:08:51;100799.03;;;5.99;100.00
27334;BME280;14817;57.104;-2.094;2023-04-27T07:11:18;100800.41;;;6.04;100.00
27334;BME280;14817;57.104;-2.094;2023-04-27T07:13:44;100811.38;;;6.00;100.00
27334;BME280;14817;57.104;-2.094;2023-04-27T07:16:11;100808.84;;;5.98;100.00
27334;BME280;14817;57.104;-2.094;2023-04-27T07:18:38;100808.47;;;6.03;100.00
27334;BME280;14817;57.104;-2.094;2023-04-27T07:21:08;100804.16;;;6.02;100.00
27334;BME280;14817;57.104;-2.094;2023-04-27T07:23:35;100806.22;;;6.09;100.00
27334;BME280;14817;57.104;-2.094;2023-04-27T07:26:02;100804.66;;;6.18;100.00
27334;BME280;14817;57.104;-2.094;2023-04-27T07:28:28;100793.44;;;6.15;100.00
27334;BME280;14817;57.104;-2.094;2023-04-27T07:30:55;100803.72;;;6.19;100.00
27334;BME280;14817;57.104;-2.094;2023-04-27T07:33:23;100804.78;;;6.17;100.00
27334;BME280;14817;57.104;-2.094;2023-04-27T07:35:50;100811.31;;;6.12;100.00
27334;BME280;14817;57.104;-2.094;2023-04-27T07:38:19;100795.34;;;6.12;100.00
27334;BME280;14817;57.104;-2.094;2023-04-27T07:40:46;100805.50;;;6.19;100.00
27334;BME280;14817;57.104;-2.094;2023-04-27T07:43:13;100810.69;;;6.09;100.00
27334;BME280;14817;57.104;-2.094;2023-04-27T07:45:41;100804.16;;;6.13;100.00
27334;BME280;14817;57.104;-2.094;2023-04-27T07:48:08;100810.34;;;6.13;100.00
27334;BME280;14817;57.104;-2.094;2023-04-27T07:50:35;100800.66;;;6.12;100.00
27334;BME280;14817;57.104;-2.094;2023-04-27T07:53:02;100803.72;;;6.19;100.00
27334;BME280;14817;57.104;-2.094;2023-04-27T07:55:28;100798.88;;;6.24;100.00
27334;BME280;14817;57.104;-2.094;2023-04-27T07:57:55;100797.78;;;6.27;100.00
27334;BME280;14817;57.104;-2.094;2023-04-27T08:00:23;100796.22;;;6.24;100.00
27334;BME280;14817;57.104;-2.094;2023-04-27T08:02:54;100801.78;;;6.32;100.00
27334;BME280;14817;57.104;-2.094;2023-04-27T08:05:22;100800.13;;;6.43;100.00
27334;BME280;14817;57.104;-2.094;2023-04-27T08:07:49;100797.69;;;6.40;100.00
27334;BME280;14817;57.104;-2.094;2023-04-27T08:10:19;100799.88;;;6.46;100.00
27334;BME280;14817;57.104;-2.094;2023-04-27T08:12:46;100792.88;;;6.45;100.00
27334;BME280;14817;57.104;-2.094;2023-04-27T08:15:13;100791.53;;;6.39;100.00
27334;BME280;14817;57.104;-2.094;2023-04-27T08:17:40;100793.44;;;6.37;100.00
27334;BME280;14817;57.104;-2.094;2023-04-27T08:20:08;100792.88;;;6.45;100.00
27334;BME280;14817;57.104;-2.094;2023-04-27T08:22:38;100790.94;;;6.47;100.00
27334;BME280;14817;57.104;-2.094;2023-04-27T08:25:05;100787.91;;;6.40;100.00
27334;BME280;14817;57.104;-2.094;2023-04-27T08:27:35;100791.88;;;6.46;100.00
27334;BME280;14817;57.104;-2.094;2023-04-27T08:30:03;100787.31;;;6.48;100.00
27334;BME280;14817;57.104;-2.094;2023-04-27T08:32:30;100797.22;;;6.46;100.00
27334;BME280;14817;57.104;-2.094;2023-04-27T08:34:56;100793.59;;;6.47;100.00
27334;BME280;14817;57.104;-2.094;2023-04-27T08:37:23;100785.97;;;6.42;100.00
27334;BME280;14817;57.104;-2.094;2023-04-27T08:39:50;100784.16;;;6.43;100.00
27334;BME280;14817;57.104;-2.094;2023-04-27T08:42:16;100786.09;;;6.52;100.00
27334;BME280;14817;57.104;-2.094;2023-04-27T08:44:43;100779.09;;;6.51;100.00
27334;BME280;14817;57.104;-2.094;2023-04-27T08:47:10;100778.25;;;6.62;100.00
27334;BME280;14817;57.104;-2.094;2023-04-27T08:49:37;100777.78;;;6.68;100.00
27334;BME280;14817;57.104;-2.094;2023-04-27T08:52:11;100777.03;;;6.77;100.00
27334;BME280;14817;57.104;-2.094;2023-04-27T08:54:38;100766.03;;;6.82;100.00
27334;BME280;14817;57.104;-2.094;2023-04-27T08:57:10;100772.19;;;6.71;100.00
27334;BME280;14817;57.104;-2.094;2023-04-27T08:59:38;100766.75;;;6.72;100.00
27334;BME280;14817;57.104;-2.094;2023-04-27T09:02:05;100768.44;;;6.73;100.00
27334;BME280;14817;57.104;-2.094;2023-04-27T09:04:38;100767.59;;;6.73;100.00
27334;BME280;14817;57.104;-2.094;2023-04-27T09:07:16;100763.34;;;6.82;100.00
27334;BME280;14817;57.104;-2.094;2023-04-27T09:09:44;100764.69;;;6.87;100.00
27334;BME280;14817;57.104;-2.094;2023-04-27T09:12:19;100769.66;;;6.81;100.00
27334;BME280;14817;57.104;-2.094;2023-04-27T09:15:05;100756.94;;;6.84;100.00
27334;BME280;14817;57.104;-2.094;2023-04-27T09:17:33;100756.13;;;6.72;100.00
27334;BME280;14817;57.104;-2.094;2023-04-27T09:25:30;100750.97;;;7.03;100.00
27334;BME280;14817;57.104;-2.094;2023-04-27T09:27:59;100748.09;;;6.95;100.00
27334;BME280;14817;57.104;-2.094;2023-04-27T09:30:27;100753.69;;;6.81;100.00
27334;BME280;14817;57.104;-2.094;2023-04-27T09:33:00;100751.03;;;6.69;100.00
27334;BME280;14817;57.104;-2.094;2023-04-27T09:35:29;100749.56;;;6.65;100.00
27334;BME280;14817;57.104;-2.094;2023-04-27T09:37:59;100746.66;;;6.57;100.00
27334;BME280;14817;57.104;-2.094;2023-04-27T09:40:28;100748.63;;;6.66;100.00
27334;BME280;14817;57.104;-2.094;2023-04-27T09:42:59;100741.06;;;6.83;100.00
27334;BME280;14817;57.104;-2.094;2023-04-27T09:45:27;100738.66;;;6.91;100.00
27334;BME280;14817;57.104;-2.094;2023-04-27T09:47:54;100733.31;;;6.91;100.00
27334;BME280;14817;57.104;-2.094;2023-04-27T09:50:21;100733.81;;;6.96;100.00
27334;BME280;14817;57.104;-2.094;2023-04-27T09:52:48;100735.13;;;7.02;100.00
27334;BME280;14817;57.104;-2.094;2023-04-27T09:55:18;100735.34;;;7.10;100.00
27334;BME280;14817;57.104;-2.094;2023-04-27T09:57:50;100733.19;;;7.04;100.00
27334;BME280;14817;57.104;-2.094;2023-04-27T10:03:30;100725.03;;;7.16;100.00
27334;BME280;14817;57.104;-2.094;2023-04-27T10:08:55;100721.97;;;7.32;100.00
27334;BME280;14817;57.104;-2.094;2023-04-27T10:11:34;100739.75;;;7.43;100.00
27334;BME280;14817;57.104;-2.094;2023-04-27T10:14:08;100720.09;;;7.44;100.00
27334;BME280;14817;57.104;-2.094;2023-04-27T10:16:44;100716.00;;;7.40;100.00
27334;BME280;14817;57.104;-2.094;2023-04-27T10:19:14;100722.38;;;7.49;100.00
27334;BME280;14817;57.104;-2.094;2023-04-27T10:22:00;100711.03;;;7.68;100.00
27334;BME280;14817;57.104;-2.094;2023-04-27T10:24:38;100712.25;;;7.64;100.00
27334;BME280;14817;57.104;-2.094;2023-04-27T10:27:07;100709.94;;;7.70;100.00
27334;BME280;14817;57.104;-2.094;2023-04-27T10:29:38;100712.66;;;7.59;100.00
27334;BME280;14817;57.104;-2.094;2023-04-27T10:32:22;100702.78;;;7.50;100.00
27334;BME280;14817;57.104;-2.094;2023-04-27T10:34:51;100717.38;;;7.34;100.00
27334;BME280;14817;57.104;-2.094;2023-04-27T10:37:41;100708.09;;;7.18;100.00
27334;BME280;14817;57.104;-2.094;2023-04-27T10:40:12;100710.19;;;7.03;100.00
27334;BME280;14817;57.104;-2.094;2023-04-27T10:42:40;100706.13;;;7.31;100.00
27334;BME280;14817;57.104;-2.094;2023-04-27T10:45:08;100702.50;;;7.32;100.00
27334;BME280;14817;57.104;-2.094;2023-04-27T10:47:45;100706.44;;;7.38;100.00
27334;BME280;14817;57.104;-2.094;2023-04-27T10:50:12;100700.22;;;7.48;100.00
27334;BME280;14817;57.104;-2.094;2023-04-27T10:52:42;100695.94;;;7.57;100.00
27334;BME280;14817;57.104;-2.094;2023-04-27T10:55:17;100705.03;;;7.54;100.00
27334;BME280;14817;57.104;-2.094;2023-04-27T10:57:51;100698.56;;;7.47;100.00
27334;BME280;14817;57.104;-2.094;2023-04-27T11:00:30;100697.25;;;7.63;100.00
27334;BME280;14817;57.104;-2.094;2023-04-27T11:03:15;100686.19;;;7.67;100.00
27334;BME280;14817;57.104;-2.094;2023-04-27T11:05:45;100693.16;;;7.59;100.00
27334;BME280;14817;57.104;-2.094;2023-04-27T11:08:14;100686.13;;;7.78;100.00
27334;BME280;14817;57.104;-2.094;2023-04-27T11:10:47;100679.31;;;7.86;100.00
27334;BME280;14817;57.104;-2.094;2023-04-27T11:13:20;100680.47;;;7.72;100.00
27334;BME280;14817;57.104;-2.094;2023-04-27T11:15:52;100673.59;;;7.90;100.00
27334;BME280;14817;57.104;-2.094;2023-04-27T11:18:26;100677.69;;;7.52;100.00
27334;BME280;14817;57.104;-2.094;2023-04-27T11:21:14;100681.38;;;7.40;100.00
27334;BME280;14817;57.104;-2.094;2023-04-27T11:23:41;100675.72;;;7.33;100.00
27334;BME280;14817;57.104;-2.094;2023-04-27T11:26:16;100665.78;;;7.35;100.00
27334;BME280;14817;57.104;-2.094;2023-04-27T11:28:56;100674.25;;;7.29;100.00
27334;BME280;14817;57.104;-2.094;2023-04-27T11:31:24;100666.88;;;7.33;100.00
27334;BME280;14817;57.104;-2.094;2023-04-27T11:33:52;100663.09;;;7.35;100.00
27334;BME280;14817;57.104;-2.094;2023-04-27T11:36:21;100664.16;;;7.44;100.00
27334;BME280;14817;57.104;-2.094;2023-04-27T11:38:48;100668.53;;;7.45;100.00
27334;BME280;14817;57.104;-2.094;2023-04-27T11:41:15;100664.16;;;7.44;100.00
27334;BME280;14817;57.104;-2.094;2023-04-27T11:43:43;100660.41;;;7.47;100.00
27334;BME280;14817;57.104;-2.094;2023-04-27T11:46:13;100655.06;;;7.47;100.00
27334;BME280;14817;57.104;-2.094;2023-04-27T11:48:40;100660.53;;;7.66;100.00
27334;BME280;14817;57.104;-2.094;2023-04-27T11:51:12;100655.41;;;7.53;100.00
27334;BME280;14817;57.104;-2.094;2023-04-27T11:53:39;100649.09;;;7.54;100.00
27334;BME280;14817;57.104;-2.094;2023-04-27T11:56:06;100647.22;;;7.66;100.00
27334;BME280;14817;57.104;-2.094;2023-04-27T11:58:37;100642.84;;;7.65;100.00
27334;BME280;14817;57.104;-2.094;2023-04-27T12:01:05;100647.13;;;7.77;100.00
27334;BME280;14817;57.104;-2.094;2023-04-27T12:03:33;100643.69;;;7.66;100.00
27334;BME280;14817;57.104;-2.094;2023-04-27T12:06:00;100642.78;;;7.55;100.00
27334;BME280;14817;57.104;-2.094;2023-04-27T12:08:30;100649.56;;;7.60;100.00
27334;BME280;14817;57.104;-2.094;2023-04-27T12:10:57;100632.69;;;7.59;100.00
27334;BME280;14817;57.104;-2.094;2023-04-27T12:13:24;100643.63;;;7.56;100.00
27334;BME280;14817;57.104;-2.094;2023-04-27T12:15:50;100642.41;;;7.60;100.00
27334;BME280;14817;57.104;-2.094;2023-04-27T12:18:17;100640.75;;;7.48;100.00
27334;BME280;14817;57.104;-2.094;2023-04-27T12:20:44;100650.00;;;7.44;100.00
27334;BME280;14817;57.104;-2.094;2023-04-27T12:23:11;100640.88;;;7.46;100.00
27334;BME280;14817;57.104;-2.094;2023-04-27T12:25:38;100638.38;;;7.45;100.00
27334;BME280;14817;57.104;-2.094;2023-04-27T12:28:06;100652.06;;;7.40;100.00
27334;BME280;14817;57.104;-2.094;2023-04-27T12:30:33;100636.22;;;7.39;100.00
27334;BME280;14817;57.104;-2.094;2023-04-27T12:33:00;100630.56;;;7.32;100.00
27334;BME280;14817;57.104;-2.094;2023-04-27T12:35:37;100627.94;;;7.21;100.00
27334;BME280;14817;57.104;-2.094;2023-04-27T12:38:04;100626.72;;;7.25;100.00
27334;BME280;14817;57.104;-2.094;2023-04-27T12:40:32;100632.03;;;7.25;100.00
27334;BME280;14817;57.104;-2.094;2023-04-27T12:42:59;100631.59;;;7.20;100.00
27334;BME280;14817;57.104;-2.094;2023-04-27T12:45:27;100636.59;;;7.13;100.00
27334;BME280;14817;57.104;-2.094;2023-04-27T12:47:53;100631.38;;;7.11;100.00
27334;BME280;14817;57.104;-2.094;2023-04-27T12:50:30;100625.66;;;7.16;100.00
27334;BME280;14817;57.104;-2.094;2023-04-27T12:52:57;100632.75;;;7.27;100.00
27334;BME280;14817;57.104;-2.094;2023-04-27T12:55:27;100639.81;;;7.16;100.00
27334;BME280;14817;57.104;-2.094;2023-04-27T12:57:59;100630.22;;;7.25;100.00